Latest Coastal Weather Observations for Coolangatta (QLD)

IDN60701

Issued at 8:51 pm EST Friday 18 August 2017 (issued every 10 minutes, with the page automatically refreshed every 10 minutes)

About coastal observations | Map of coastal stations | Coastal observations for NSW | Marine services | Other Formats
Station Details ID: 040717 Name: COOLANGATTA Lat: -28.17 Lon: 153.51 Height: 4.0 m
Data from the previous 72 hours. | See also: Recent months at Coolangatta (QLD)
Date/Time
EST
Temp
°C
Wind Pressure Rain since
9am
mm
Weather Cloud Vis
km
Sea
Height
m
Swell
Dir  Spd
kts
Gust
kts
hPa Trend Height
m
Period
s
Dir
18/08:30pm 17.5 W 5 7 1014.1 - 0.0 - - 10 - - - -
18/08:00pm 16.8 W 4 6 1013.7 - 0.0 - - 10 - - - -
18/07:30pm 17.7 NNW 2 4 1013.2 - 0.0 - - 10 - - - -
18/07:00pm 17.6 NW 5 8 1012.8 - 0.0 - - 10 - - - -
18/06:30pm 21.2 WSW 12 22 1012.2 - 0.0 - - 10 - - - -
18/06:00pm 20.1 WNW 6 10 1011.8 - 0.0 - - 10 - - - -
18/05:30pm 22.0 W 10 17 1011.2 - 0.0 - - 10 - - - -
18/05:00pm 22.7 WSW 12 20 1010.8 - 0.0 - - 10 - - - -
18/04:41pm 23.5 WSW 13 24 1010.5 - 0.0 - - 10 - - - -
18/04:30pm 24.1 W 7 11 1010.3 - 0.0 - - 10 - - - -
18/04:00pm 24.6 WSW 15 27 1009.9 - 0.0 - - 10 - - - -
18/03:58pm 24.7 WSW 15 27 1009.9 - 0.0 - - 10 - - - -
18/03:30pm 25.3 W 13 22 1009.4 - 0.0 - - 10 - - - -
18/03:00pm 25.7 W 12 17 1009.2 - 0.0 - - 10 - - - -
18/02:30pm 26.3 WNW 13 20 1009.1 - 0.0 - - 10 - - - -
18/02:00pm 26.7 WNW 12 19 1009.1 - 0.0 - - 10 - - - -
18/01:30pm 26.6 W 6 11 1009.3 - 0.0 - - 10 - - - -
18/01:00pm 26.5 WNW 10 18 1009.8 - 0.0 - - 10 - - - -
18/12:30pm 25.7 WNW 11 17 1010.2 - 0.0 - - 10 - - - -
18/12:00pm 25.4 W 11 16 1010.9 - 0.0 - - 10 - - - -
18/11:30am 24.6 NW 9 15 1011.7 - 0.0 - - 10 - - - -
18/11:02am 24.4 W 15 25 1012.1 - 0.0 - - 10 - - - -
18/11:00am 24.1 W 15 23 1012.1 - 0.0 - - 10 - - - -
18/10:30am 24.6 W 10 15 1012.8 - 0.0 - - 10 - - - -
18/10:00am 23.6 WNW 6 11 1013.2 - 0.0 - - 10 - - - -
18/09:30am 22.9 NW 6 11 1013.7 - 0.0 - - 10 - - - -
18/09:00am 22.5 WNW 6 9 1014.0 - 0.0 - - 10 - - - -
18/08:30am 21.3 W 5 7 1014.2 - 0.0 - - 10 - - - -
18/08:00am 18.8 W 4 6 1014.1 - 0.0 - - 10 - - - -
18/07:30am 15.1 CALM 0 0 1013.8 - 0.0 - - 10 - - - -
18/07:00am 12.0 NW 1 4 1013.5 - 0.0 - - 10 - - - -
18/06:30am 9.6 W 4 6 1013.4 - 0.0 - - 10 - - - -
18/06:00am 9.0 WSW 1 4 1013.0 - 0.0 - - 10 - - - -
18/05:30am 8.2 SW 2 4 1012.7 - 0.0 - - 10 - - - -
18/05:00am 9.7 WSW 4 5 1012.2 - 0.0 - - 10 - - - -
18/04:30am 10.6 SW 4 6 1011.8 - 0.0 - - 10 - - - -
18/04:00am 11.2 SW 7 8 1011.5 - 0.0 - - 10 - - - -
18/03:30am 11.3 WSW 5 6 1011.3 - 0.0 - - 10 - - - -
18/03:00am 11.2 WSW 4 6 1011.2 - 0.0 - - 10 - - - -
18/02:30am 13.2 SW 3 4 1011.3 - 0.0 - - 10 - - - -
18/02:00am 14.6 ESE 3 4 1011.1 - 0.0 - - 10 - - - -
18/01:30am 18.1 SW 5 11 1010.8 - 0.0 - - 10 - - - -
18/01:00am 18.0 WNW 9 11 1011.0 - 0.0 - - 10 - - - -
18/12:30am 16.0 W 8 12 1011.2 - 0.0 - - 10 - - - -
18/12:00am 15.4 W 5 8 1011.4 - 0.0 - - 10 - - - -
 
Date/Time
EST
Temp
°C
Wind Pressure Rain since
9am
mm
Weather Cloud Vis
km
Sea
Height
m
Swell
Dir  Spd
kts
Gust
kts
hPa Trend Height
m
Period
s
Dir
17/11:30pm 16.0 SW 5 7 1011.5 - 0.0 - - 10 - - - -
17/11:00pm 18.9 SW 7 9 1011.6 - 0.0 - - 10 - - - -
17/10:30pm 16.2 SW 4 6 1011.5 - 0.0 - - 10 - - - -
17/10:00pm 16.4 SW 6 8 1011.2 - 0.0 - - 10 - - - -
17/09:30pm 17.7 WSW 6 7 1011.1 - 0.0 - - 10 - - - -
17/09:00pm 17.3 W 5 7 1010.8 - 0.0 - - 10 - - - -
17/08:30pm 18.6 W 6 7 1010.7 - 0.0 - - 10 - - - -
17/08:00pm 19.8 WNW 5 7 1010.5 - 0.0 - - 10 - - - -
17/07:30pm 23.1 WNW 6 8 1010.1 - 0.0 - - 10 - - - -
17/07:00pm 23.6 WNW 7 11 1009.8 - 0.0 - - 10 - - - -
17/06:30pm 20.8 WNW 6 8 1009.4 - 0.0 - - 10 - - - -
17/06:00pm 20.4 WNW 5 10 1008.8 - 0.0 - - 8 - - - -
17/05:30pm 21.1 NNW 6 8 1008.4 - 0.0 - - 10 - - - -
17/05:00pm 21.7 N 10 13 1007.9 - 0.0 - - 10 - - - -
17/04:30pm 22.7 N 10 13 1007.6 - 0.0 - - 10 - - - -
17/04:00pm 23.5 N 12 15 1007.4 - 0.0 - - 10 - - - -
17/03:30pm 24.0 N 13 17 1007.1 - 0.0 - - 10 - - - -
17/03:00pm 25.1 N 12 15 1006.9 - 0.0 - - 10 - - - -
17/02:30pm 25.1 N 14 19 1007.0 - 0.0 - - 10 - - - -
17/02:00pm 25.3 N 13 17 1007.3 - 0.0 - - 10 - - - -
17/01:30pm 25.1 N 15 18 1007.6 - 0.0 - - 10 - - - -
17/01:00pm 25.8 N 14 18 1007.7 - 0.0 - - 10 - - - -
17/12:30pm 27.0 N 15 19 1008.0 - 0.0 - - 10 - - - -
17/12:00pm 25.8 N 14 17 1008.6 - 0.0 - - 10 - - - -
17/11:30am 26.3 N 15 17 1009.2 - 0.0 - - 10 - - - -
17/11:00am 26.2 N 13 16 1009.8 - 0.0 - - 10 - - - -
17/10:30am 25.2 N 13 16 1010.3 - 0.0 - - 10 - - - -
17/10:00am 24.8 N 12 15 1010.7 - 0.0 - - 10 - - - -
17/09:30am 23.8 N 13 16 1010.8 - 0.0 - - 10 - - - -
17/09:00am 22.5 N 12 14 1011.0 - 0.0 - - 10 - - - -
17/08:30am 21.8 N 13 15 1011.2 - 0.0 - - 10 - - - -
17/08:00am 21.1 N 11 13 1011.1 - 0.0 - - 10 - - - -
17/07:30am 20.3 N 13 15 1010.9 - 0.0 - - 10 - - - -
17/07:00am 19.6 N 8 11 1010.9 - 0.0 - - 10 - - - -
17/06:30am 18.3 N 4 7 1010.6 - 0.0 - - 10 - - - -
17/06:00am 18.3 NNW 5 8 1010.2 - 0.0 - - 10 - - - -
17/05:30am 18.6 N 7 9 1009.9 - 0.0 - - 10 - - - -
17/05:00am 18.8 N 9 11 1009.7 - 0.0 - - 10 - - - -
17/04:30am 18.8 N 8 9 1009.7 - 0.0 - - 10 - - - -
17/04:00am 18.4 N 5 8 1009.8 - 0.0 - - 10 - - - -
17/03:30am 18.3 NNW 3 6 1009.7 - 0.0 - - 10 - - - -
17/03:00am 18.7 N 9 12 1009.5 - 0.0 - - 10 - - - -
17/02:30am 18.7 NNW 7 10 1009.8 - 0.0 - - 10 - - - -
17/02:00am 18.6 N 5 8 1010.0 - 0.0 - - 9 - - - -
17/01:30am 18.8 NE 6 8 1010.4 - 0.0 - - 8 - - - -
17/01:00am 19.0 NE 7 9 1010.5 - 0.0 - - 8 - - - -
17/12:30am 19.1 NE 7 8 1010.6 - 0.0 - - 9 - - - -
17/12:00am 19.5 NE 7 9 1010.8 - 0.0 - - 10 - - - -
 
Date/Time
EST
Temp
°C
Wind Pressure Rain since
9am
mm
Weather Cloud Vis
km
Sea
Height
m
Swell
Dir  Spd
kts
Gust
kts
hPa Trend Height
m
Period
s
Dir
16/11:30pm 19.8 NNE 8 11 1010.8 - 0.0 - - 9 - - - -
16/11:00pm 19.9 N 11 13 1010.7 - 0.0 - - 10 - - - -
16/10:30pm 20.1 N 9 11 1010.9 - 0.0 - - 10 - - - -
16/10:00pm 20.1 NNE 9 10 1011.0 - 0.0 - - 8 - - - -
16/09:30pm 20.2 NNE 7 9 1011.0 - 0.0 - - 8 - - - -
16/09:03pm 20.4 N 6 8 1010.8 - 0.0 - - 10 - - - -
16/09:00pm 20.1 N 6 7 1010.8 - 0.0 - - 9 - - - -
16/08:49pm 20.5 N 7 8 1010.6 - 0.0 - - 6 - - - -
16/08:30pm 21.0 NNW 6 8 1010.6 - 0.0 - - 10 - - - -
16/08:00pm 21.9 NW 9 14 1010.3 - 0.0 - - 10 - - - -
16/07:30pm 22.0 NW 10 15 1009.9 - 0.0 - - 10 - - - -
16/07:00pm 21.8 NW 7 11 1009.6 - 0.0 - - 10 - - - -
16/06:30pm 21.7 NW 7 10 1009.3 - 0.0 - - 10 - - - -
16/06:00pm 20.3 N 6 8 1008.9 - 0.0 - - 7 - - - -
16/05:30pm 21.0 N 11 14 1008.4 - 0.0 - - 9 - - - -
16/05:00pm 21.7 N 13 17 1008.3 - 0.0 - - 10 - - - -
16/04:30pm 22.5 N 13 17 1008.0 - 0.0 - - 10 - - - -
16/04:00pm 23.4 N 13 16 1007.7 - 0.0 - - 10 - - - -
16/03:30pm 23.5 NNE 12 16 1007.8 - 0.0 - - 10 - - - -
16/03:00pm 23.6 N 15 20 1008.0 - 0.0 - - 10 - - - -
16/02:30pm 23.4 N 17 20 1008.3 - 0.0 - - 10 - - - -
16/02:00pm 24.1 N 18 22 1008.5 - 0.0 - - 10 - - - -
16/01:30pm 23.5 NNE 16 22 1009.0 - 0.0 - - 10 - - - -
16/01:00pm 23.5 N 16 21 1009.4 - 0.0 - - 10 - - - -
16/12:30pm 23.0 NE 14 19 1010.2 - 0.0 - - 10 - - - -
16/12:00pm 22.8 NNE 15 19 1010.9 - 0.0 - - 10 - - - -
16/11:30am 22.5 NNE 15 19 1011.8 - 0.0 - - 10 - - - -
16/11:00am 22.3 N 16 19 1012.4 - 0.0 - - 10 - - - -
16/10:30am 21.7 N 17 20 1013.1 - 0.0 - - 10 - - - -
16/10:00am 21.7 N 15 18 1013.6 - 0.0 - - 10 - - - -
16/09:30am 21.2 N 17 19 1013.7 - 0.0 - - 10 - - - -
16/09:00am 21.2 NNW 16 22 1013.3 - 0.0 - - 10 - - - -
16/08:30am 20.3 NNW 13 21 1013.6 - 0.0 - - 10 - - - -
16/08:00am 19.5 NW 13 17 1013.7 - 0.0 - - 10 - - - -
16/07:30am 18.6 NW 11 17 1013.5 - 0.0 - - 10 - - - -
16/07:00am 17.8 NW 10 14 1013.5 - 0.0 - - 10 - - - -
16/06:30am 17.2 N 8 11 1013.2 - 0.0 - - 10 - - - -
16/06:00am 16.9 N 9 14 1013.0 - 0.0 - - 10 - - - -
16/05:30am 16.8 NNW 9 12 1012.7 - 0.0 - - 10 - - - -
16/05:00am 16.6 NNW 11 14 1012.5 - 0.0 - - 10 - - - -
16/04:30am 16.3 N 9 11 1012.5 - 0.0 - - 10 - - - -
16/04:00am 16.4 N 5 8 1012.7 - 0.0 - - 10 - - - -
16/03:30am 16.6 N 6 8 1012.7 - 0.0 - - 10 - - - -
16/03:00am 17.3 N 9 12 1013.0 - 0.0 - - 10 - - - -
16/02:30am 17.4 NNW 10 14 1013.1 - 0.0 - - 10 - - - -
16/02:00am 18.0 NNW 9 11 1013.4 - 0.0 - - 10 - - - -
16/01:30am 18.3 NW 11 14 1013.7 - 0.0 - - 10 - - - -
16/01:00am 16.9 N 8 11 1014.3 - 0.0 - - 10 - - - -
16/12:30am 18.0 NNW 7 12 1014.7 - 0.0 - - 10 - - - -
16/12:00am 17.5 NNW 5 7 1014.9 - 0.0 - - 10 - - - -
 
Date/Time
EST
Temp
°C
Wind Pressure Rain since
9am
mm
Weather Cloud Vis
km
Sea
Height
m
Swell
Dir  Spd
kts
Gust
kts
hPa Trend Height
m
Period
s
Dir
15/11:30pm 18.2 NNW 6 8 1015.0 - 0.0 - - 10 - - - -
15/11:00pm 18.8 NW 9 13 1014.9 - 0.0 - - 10 - - - -
15/10:30pm 18.0 NNW 6 8 1015.2 - 0.0 - - 10 - - - -
15/10:00pm 17.8 NW 6 7 1015.4 - 0.0 - - 10 - - - -
15/09:30pm 18.2 NW 7 9 1015.3 - 0.0 - - 10 - - - -
15/09:00pm 17.7 WNW 7 9 1015.4 - 0.0 - - 10 - - - -

Other Formats:

Comma delimited format used in spreadsheet applications
http://www.bom.gov.au/fwo/IDN60701/IDN60701.94592.axf

JavaScript Object Notation format (JSON) in row-major order
http://www.bom.gov.au/fwo/IDN60701/IDN60701.94592.json